createdAt,value
2019-02-24T00:00:04.060Z,50.49
2019-02-24T00:02:30.135Z,50.56
2019-02-24T00:04:56.133Z,50.50
2019-02-24T00:07:22.113Z,50.45
2019-02-24T00:09:48.088Z,50.30
2019-02-24T00:12:14.071Z,50.38
2019-02-24T00:14:40.169Z,50.43
2019-02-24T00:17:06.155Z,50.81
2019-02-24T00:19:32.160Z,50.91
2019-02-24T00:21:58.239Z,50.90
2019-02-24T00:24:24.216Z,51.07
2019-02-24T00:26:50.223Z,51.36
2019-02-24T00:29:16.195Z,51.21
2019-02-24T00:31:42.189Z,51.24
2019-02-24T00:34:08.160Z,51.33
2019-02-24T00:36:34.159Z,51.34
2019-02-24T00:39:00.136Z,51.45
2019-02-24T00:41:26.125Z,51.45
2019-02-24T00:43:52.235Z,51.51
2019-02-24T00:46:18.223Z,51.54
2019-02-24T00:48:44.227Z,51.87
2019-02-24T00:51:10.201Z,51.86
2019-02-24T00:53:36.179Z,51.96
2019-02-24T00:56:02.172Z,51.92
2019-02-24T00:58:28.153Z,51.89
2019-02-24T01:00:54.148Z,52.06
2019-02-24T01:03:20.136Z,52.06
2019-02-24T01:05:46.123Z,52.22
2019-02-24T01:08:12.095Z,52.19
2019-02-24T01:10:38.109Z,52.20
2019-02-24T01:13:04.082Z,52.28
2019-02-24T01:15:30.091Z,52.30
2019-02-24T01:17:56.106Z,52.43
2019-02-24T01:20:22.068Z,52.44
2019-02-24T01:22:48.074Z,52.29
2019-02-24T01:25:14.103Z,52.43
2019-02-24T01:27:40.102Z,52.33
2019-02-24T01:30:06.099Z,52.38
2019-02-24T01:32:32.186Z,52.88
2019-02-24T01:34:58.203Z,52.68
2019-02-24T01:37:24.176Z,52.55
2019-02-24T01:39:50.160Z,52.50
2019-02-24T01:42:16.145Z,52.49
2019-02-24T01:44:42.170Z,52.32
2019-02-24T01:47:08.263Z,52.50
2019-02-24T01:49:34.273Z,52.36
2019-02-24T01:52:00.268Z,52.58
2019-02-24T01:54:26.326Z,52.65
2019-02-24T01:56:52.339Z,52.52
2019-02-24T01:59:18.314Z,53.03
2019-02-24T02:01:44.295Z,52.79
2019-02-24T02:04:10.329Z,52.89
2019-02-24T02:06:36.349Z,52.69
2019-02-24T02:09:02.412Z,52.80
2019-02-24T02:11:28.376Z,52.67
2019-02-24T02:13:54.357Z,52.84
2019-02-24T02:16:20.375Z,52.76
2019-02-24T02:18:46.429Z,52.32
2019-02-24T02:21:12.415Z,52.56
2019-02-24T02:23:38.389Z,52.85
2019-02-24T02:26:04.360Z,52.87
2019-02-24T02:28:30.378Z,52.62
2019-02-24T02:30:56.348Z,52.60
2019-02-24T02:33:22.328Z,52.65
2019-02-24T02:35:48.402Z,52.45
2019-02-24T02:38:14.399Z,52.53
2019-02-24T02:40:40.396Z,52.34
2019-02-24T02:43:06.493Z,52.47
2019-02-24T02:45:32.473Z,52.46
2019-02-24T02:47:58.445Z,52.29
2019-02-24T02:50:24.433Z,52.48
2019-02-24T02:52:50.450Z,52.56
2019-02-24T02:55:16.483Z,52.71
2019-02-24T02:57:42.468Z,52.42
2019-02-24T03:00:08.443Z,52.70
2019-02-24T03:02:34.558Z,52.56
2019-02-24T03:05:00.546Z,52.42
2019-02-24T03:07:26.552Z,52.34
2019-02-24T03:09:52.532Z,52.23
2019-02-24T03:12:18.507Z,52.25
2019-02-24T03:14:44.495Z,52.33
2019-02-24T03:17:10.490Z,52.57
2019-02-24T03:19:36.490Z,52.34
2019-02-24T03:22:02.471Z,51.96
2019-02-24T03:24:28.461Z,52.15
2019-02-24T03:26:54.444Z,52.14
2019-02-24T03:29:20.440Z,52.44
2019-02-24T03:31:46.426Z,52.21
2019-02-24T03:34:12.413Z,52.17
2019-02-24T03:36:38.437Z,51.98
2019-02-24T03:39:04.471Z,52.16
2019-02-24T03:41:30.452Z,52.26
2019-02-24T03:43:56.431Z,52.25
2019-02-24T03:46:22.460Z,52.05
2019-02-24T03:48:48.442Z,51.84
2019-02-24T03:51:14.407Z,51.83
2019-02-24T03:53:40.444Z,51.85
2019-02-24T03:56:06.468Z,51.75
2019-02-24T03:58:32.493Z,51.75
2019-02-24T04:00:58.509Z,51.43
2019-02-24T04:03:24.483Z,51.53
2019-02-24T04:05:50.475Z,51.41
2019-02-24T04:08:16.492Z,51.31
2019-02-24T04:10:42.492Z,51.25
2019-02-24T04:13:08.478Z,51.24
2019-02-24T04:15:34.485Z,51.21
2019-02-24T04:18:00.477Z,51.10
2019-02-24T04:20:26.499Z,51.06
2019-02-24T04:22:52.583Z,51.07
2019-02-24T04:25:18.561Z,51.13
2019-02-24T04:27:44.622Z,51.09
2019-02-24T04:30:10.583Z,51.19
2019-02-24T04:32:36.573Z,51.30
2019-02-24T04:35:02.556Z,51.20
2019-02-24T04:37:28.559Z,51.27
2019-02-24T04:39:55.576Z,51.12
2019-02-24T04:42:21.565Z,51.12
2019-02-24T04:44:47.548Z,51.05
2019-02-24T04:47:13.543Z,51.11
2019-02-24T04:49:39.535Z,50.99
2019-02-24T04:52:05.507Z,51.02
2019-02-24T04:54:31.515Z,50.83
2019-02-24T04:56:57.584Z,50.72
2019-02-24T04:59:23.563Z,50.83
2019-02-24T05:01:49.545Z,50.85
2019-02-24T05:04:15.560Z,50.92
2019-02-24T05:06:41.581Z,50.91
2019-02-24T05:09:07.638Z,50.90
2019-02-24T05:11:34.678Z,50.88
2019-02-24T05:14:00.679Z,50.88
2019-02-24T05:16:26.661Z,50.93
2019-02-24T05:18:52.646Z,50.96
2019-02-24T05:21:18.609Z,50.96
2019-02-24T05:23:44.642Z,50.98
2019-02-24T05:26:10.628Z,50.91
2019-02-24T05:28:36.620Z,50.87
2019-02-24T05:31:02.709Z,50.80
2019-02-24T05:33:28.688Z,50.81
2019-02-24T05:35:54.676Z,50.79
2019-02-24T05:38:20.660Z,50.77
2019-02-24T05:40:46.643Z,50.77
2019-02-24T05:43:12.621Z,50.76
2019-02-24T05:45:38.604Z,50.74
2019-02-24T05:48:04.600Z,50.74
2019-02-24T05:50:30.647Z,50.72
2019-02-24T05:52:56.632Z,50.72
2019-02-24T05:55:22.672Z,50.69
2019-02-24T05:57:48.745Z,50.69
2019-02-24T06:00:14.730Z,50.66
2019-02-24T06:02:40.711Z,50.68
2019-02-24T06:05:06.680Z,50.67
2019-02-24T06:07:33.273Z,49.85
2019-02-24T06:09:59.415Z,50.59
2019-02-24T06:12:25.442Z,50.65
2019-02-24T06:14:51.555Z,50.62
2019-02-24T06:17:17.532Z,50.59
2019-02-24T06:19:43.521Z,50.52
2019-02-24T06:22:09.496Z,50.52
2019-02-24T06:24:35.475Z,50.49
2019-02-24T06:27:01.514Z,50.65
2019-02-24T06:29:27.491Z,50.60
2019-02-24T06:31:53.590Z,50.51
2019-02-24T06:34:19.681Z,50.49
2019-02-24T06:36:45.732Z,50.49
2019-02-24T06:39:11.709Z,50.44
2019-02-24T06:41:37.969Z,50.43
2019-02-24T06:44:04.317Z,50.39
2019-02-24T06:46:30.300Z,50.37
2019-02-24T06:48:56.958Z,50.31
2019-02-24T06:51:22.999Z,50.33
2019-02-24T06:53:49.051Z,50.31
2019-02-24T06:56:15.039Z,50.28
2019-02-24T06:58:41.001Z,50.28
2019-02-24T07:01:06.983Z,50.30
2019-02-24T07:03:32.952Z,50.30
2019-02-24T07:05:58.930Z,50.24
2019-02-24T07:08:24.906Z,50.19
2019-02-24T07:10:50.948Z,50.18
2019-02-24T07:13:16.912Z,50.14
2019-02-24T07:15:43.008Z,50.15
2019-02-24T07:18:09.091Z,50.11
2019-02-24T07:20:35.089Z,50.07
2019-02-24T07:23:01.060Z,50.10
2019-02-24T07:25:27.246Z,50.08
2019-02-24T07:27:53.216Z,50.07
2019-02-24T07:30:23.596Z,50.01
2019-02-24T07:32:46.898Z,50.04
2019-02-24T07:35:13.393Z,50.05
2019-02-24T07:37:39.480Z,50.03
2019-02-24T07:40:05.484Z,50.01
2019-02-24T07:42:31.824Z,50.03
2019-02-24T07:44:57.916Z,49.99
2019-02-24T07:47:24.090Z,49.98
2019-02-24T07:49:50.094Z,50.05
2019-02-24T07:52:16.338Z,50.11
2019-02-24T07:54:42.611Z,50.07
2019-02-24T07:57:08.704Z,50.00
2019-02-24T07:59:34.840Z,49.95
2019-02-24T08:02:01.281Z,49.92
2019-02-24T08:04:27.351Z,49.94
2019-02-24T08:06:53.356Z,49.91
2019-02-24T08:09:19.595Z,49.86
2019-02-24T08:11:45.604Z,49.85
2019-02-24T08:14:11.679Z,49.87
2019-02-24T08:16:38.392Z,49.86
2019-02-24T08:19:04.594Z,49.87
2019-02-24T08:21:30.628Z,49.92
2019-02-24T08:23:56.608Z,49.87
2019-02-24T08:26:22.648Z,49.87
2019-02-24T08:28:48.695Z,49.87
2019-02-24T08:31:14.669Z,49.90
2019-02-24T08:33:40.681Z,49.87
2019-02-24T08:36:06.656Z,49.86
2019-02-24T08:38:32.657Z,49.89
2019-02-24T08:40:58.977Z,49.91
2019-02-24T08:43:25.009Z,49.89
2019-02-24T08:45:51.173Z,49.84
2019-02-24T08:48:19.160Z,49.82
2019-02-24T08:50:44.899Z,49.79
2019-02-24T08:53:10.902Z,49.75
2019-02-24T08:55:36.959Z,49.78
2019-02-24T08:58:02.937Z,49.78
2019-02-24T09:00:29.017Z,49.75
2019-02-24T09:02:54.995Z,49.77
2019-02-24T09:05:21.171Z,49.81
2019-02-24T09:07:47.161Z,49.78
2019-02-24T09:10:13.163Z,49.77
2019-02-24T09:12:39.157Z,49.76
2019-02-24T09:15:05.151Z,49.71
2019-02-24T09:17:31.123Z,49.68
2019-02-24T09:19:58.445Z,49.67
2019-02-24T09:22:24.488Z,49.65
2019-02-24T09:24:50.521Z,49.20
2019-02-24T09:27:16.511Z,49.53
2019-02-24T09:29:42.604Z,49.53
2019-02-24T09:32:08.848Z,49.83
2019-02-24T09:34:34.885Z,49.82
2019-02-24T09:37:00.893Z,49.71
2019-02-24T09:39:26.942Z,49.65
2019-02-24T09:41:52.921Z,49.69
2019-02-24T09:44:18.929Z,49.68
2019-02-24T09:46:44.904Z,49.69
2019-02-24T09:49:10.904Z,49.66
2019-02-24T09:51:36.879Z,49.64
2019-02-24T09:54:02.883Z,49.62
2019-02-24T09:56:28.867Z,49.62
2019-02-24T09:58:54.857Z,49.55
2019-02-24T10:01:20.898Z,49.58
2019-02-24T10:03:46.897Z,49.51
2019-02-24T10:06:12.904Z,49.53
2019-02-24T10:08:38.980Z,49.53
2019-02-24T10:11:05.463Z,49.50
2019-02-24T10:13:31.475Z,49.47
2019-02-24T10:15:57.456Z,49.47
2019-02-24T10:18:23.449Z,49.57
2019-02-24T10:20:49.480Z,49.55
2019-02-24T10:23:15.509Z,49.50
2019-02-24T10:25:41.596Z,49.40
2019-02-24T10:28:07.632Z,49.42
2019-02-24T10:30:33.636Z,49.44
2019-02-24T10:32:59.606Z,49.48
2019-02-24T10:35:25.620Z,49.42
2019-02-24T10:37:51.600Z,49.53
2019-02-24T10:40:17.759Z,49.65
2019-02-24T10:42:43.798Z,49.58
2019-02-24T10:45:09.818Z,49.61
2019-02-24T10:47:35.840Z,49.65
2019-02-24T10:50:01.816Z,49.66
2019-02-24T10:52:27.833Z,49.64
2019-02-24T10:54:53.817Z,49.65
2019-02-24T10:57:19.852Z,49.66
2019-02-24T10:59:46.010Z,49.67
2019-02-24T11:02:12.009Z,49.66
2019-02-24T11:04:38.012Z,49.66
2019-02-24T11:07:03.983Z,49.67
2019-02-24T11:09:30.086Z,49.68
2019-02-24T11:11:56.346Z,49.73
2019-02-24T11:14:22.472Z,49.65
2019-02-24T11:16:48.451Z,49.65
2019-02-24T11:19:14.467Z,49.64
2019-02-24T11:21:40.588Z,49.58
2019-02-24T11:24:06.661Z,49.57
2019-02-24T11:26:32.715Z,49.57
2019-02-24T11:28:58.744Z,49.44
2019-02-24T11:31:24.832Z,49.38
2019-02-24T11:33:50.885Z,49.42
2019-02-24T11:36:17.065Z,49.44
2019-02-24T11:38:43.113Z,49.51
2019-02-24T11:41:09.121Z,49.49
2019-02-24T11:43:35.148Z,49.57
2019-02-24T11:46:03.909Z,49.52
2019-02-24T11:48:29.932Z,49.58
2019-02-24T11:50:56.480Z,49.58
2019-02-24T11:53:22.544Z,49.62
2019-02-24T11:55:48.633Z,49.61
2019-02-24T11:58:14.700Z,49.64
2019-02-24T12:00:40.745Z,49.70
2019-02-24T12:03:06.749Z,49.69
2019-02-24T12:05:32.743Z,49.62
2019-02-24T12:07:58.729Z,49.61
2019-02-24T12:10:25.864Z,49.70
2019-02-24T12:12:51.882Z,49.69
2019-02-24T12:15:17.965Z,49.68
2019-02-24T12:17:44.041Z,49.70
2019-02-24T12:20:10.163Z,49.75
2019-02-24T12:22:36.552Z,49.82
2019-02-24T12:25:02.653Z,49.82
2019-02-24T12:27:28.692Z,49.80
2019-02-24T12:29:54.704Z,49.80
2019-02-24T12:32:20.924Z,49.84
2019-02-24T12:34:48.851Z,49.85
2019-02-24T12:37:14.916Z,49.82
2019-02-24T12:39:40.925Z,49.84
2019-02-24T12:42:07.119Z,49.87
2019-02-24T12:44:33.560Z,49.92
2019-02-24T12:47:00.549Z,49.92
2019-02-24T12:49:26.658Z,49.97
2019-02-24T12:51:52.655Z,49.92
2019-02-24T12:54:18.663Z,49.98
2019-02-24T12:56:44.646Z,49.96
2019-02-24T12:59:12.622Z,49.96
2019-02-24T13:01:38.623Z,50.09
2019-02-24T13:04:04.827Z,50.01
2019-02-24T13:06:30.832Z,49.85
2019-02-24T13:08:56.863Z,49.79
2019-02-24T13:11:22.897Z,49.71
2019-02-24T13:13:50.108Z,49.62
2019-02-24T13:16:17.225Z,50.05
2019-02-24T13:18:43.242Z,50.03
2019-02-24T13:21:10.329Z,49.88
2019-02-24T13:23:36.333Z,50.05
2019-02-24T13:26:02.345Z,50.33
2019-02-24T13:28:28.411Z,50.11
2019-02-24T13:30:54.404Z,49.97
2019-02-24T13:33:20.401Z,49.88
2019-02-24T13:35:46.435Z,49.80
2019-02-24T13:38:12.414Z,49.78
2019-02-24T13:40:38.442Z,49.89
2019-02-24T13:43:04.452Z,49.63
2019-02-24T13:45:30.455Z,49.95
2019-02-24T13:47:56.444Z,49.97
2019-02-24T13:50:22.431Z,50.08
2019-02-24T13:52:48.529Z,49.87
2019-02-24T13:55:14.545Z,49.87
2019-02-24T13:57:40.557Z,50.03
2019-02-24T14:00:06.543Z,50.08
2019-02-24T14:02:32.600Z,49.83
2019-02-24T14:04:58.606Z,49.71
2019-02-24T14:07:24.639Z,50.21
2019-02-24T14:09:50.688Z,50.15
2019-02-24T14:12:16.693Z,50.05
2019-02-24T14:14:48.900Z,50.08
2019-02-24T14:17:12.706Z,50.14
2019-02-24T14:19:38.670Z,50.03
2019-02-24T14:22:04.723Z,49.88
2019-02-24T14:24:30.701Z,49.82
2019-02-24T14:26:56.735Z,49.83
2019-02-24T14:29:22.794Z,49.92
2019-02-24T14:31:48.824Z,49.98
2019-02-24T14:34:14.801Z,49.98
2019-02-24T14:36:40.899Z,49.85
2019-02-24T14:39:07.632Z,49.78
2019-02-24T14:41:33.813Z,50.02
2019-02-24T14:44:00.084Z,49.58
2019-02-24T14:46:26.113Z,49.34
2019-02-24T14:48:52.144Z,49.40
2019-02-24T14:51:18.138Z,49.39
2019-02-24T14:53:44.157Z,49.40
2019-02-24T14:56:10.129Z,49.45
2019-02-24T14:58:36.114Z,49.46
2019-02-24T15:01:02.111Z,49.49
2019-02-24T15:03:28.124Z,49.52
2019-02-24T15:05:54.112Z,49.49
2019-02-24T15:08:20.176Z,49.64
2019-02-24T15:10:48.227Z,49.68
2019-02-24T15:13:13.868Z,49.81
2019-02-24T15:15:39.853Z,49.83
2019-02-24T15:18:05.985Z,49.77
2019-02-24T15:20:32.137Z,50.04
2019-02-24T15:22:58.218Z,50.14
2019-02-24T15:25:24.215Z,50.07
2019-02-24T15:27:50.236Z,50.03
2019-02-24T15:30:16.284Z,50.05
2019-02-24T15:32:51.156Z,50.17
2019-02-24T15:35:10.080Z,50.15
2019-02-24T15:37:36.140Z,49.89
2019-02-24T15:40:04.124Z,49.84
2019-02-24T15:42:29.920Z,49.90
2019-02-24T15:44:55.907Z,49.77
2019-02-24T15:47:21.884Z,49.76
2019-02-24T15:49:49.746Z,49.67
2019-02-24T15:52:15.878Z,49.64
2019-02-24T15:54:41.896Z,49.69
2019-02-24T15:57:07.928Z,49.69
2019-02-24T15:59:33.942Z,49.50
2019-02-24T16:01:59.998Z,49.62
2019-02-24T16:04:26.108Z,49.55
2019-02-24T16:06:52.172Z,49.61
2019-02-24T16:09:19.675Z,49.63
2019-02-24T16:11:45.859Z,49.40
2019-02-24T16:14:11.860Z,49.27
2019-02-24T16:16:37.884Z,49.36
2019-02-24T16:19:03.918Z,49.36
2019-02-24T16:21:29.929Z,49.37
2019-02-24T16:23:55.912Z,49.47
2019-02-24T16:26:21.932Z,49.42
2019-02-24T16:28:47.927Z,49.36
2019-02-24T16:31:13.908Z,49.38
2019-02-24T16:33:39.902Z,49.37
2019-02-24T16:36:05.896Z,49.44
2019-02-24T16:38:31.903Z,49.34
2019-02-24T16:40:57.874Z,49.33
2019-02-24T16:43:23.851Z,49.34
2019-02-24T16:45:49.877Z,49.37
2019-02-24T16:48:15.862Z,49.35
2019-02-24T16:50:41.871Z,49.33
2019-02-24T16:53:07.848Z,49.30
2019-02-24T16:55:33.848Z,49.29
2019-02-24T16:57:59.964Z,49.29
2019-02-24T17:00:26.016Z,49.47
2019-02-24T17:02:52.127Z,49.54
2019-02-24T17:05:18.357Z,49.65
2019-02-24T17:07:44.399Z,49.58
2019-02-24T17:10:10.456Z,49.46
2019-02-24T17:12:36.503Z,49.36
2019-02-24T17:15:02.485Z,49.33
2019-02-24T17:17:28.509Z,49.38
2019-02-24T17:19:54.592Z,49.33
2019-02-24T17:22:20.618Z,49.22
2019-02-24T17:24:46.599Z,49.17
2019-02-24T17:27:13.135Z,49.14
2019-02-24T17:29:39.205Z,49.05
2019-02-24T17:32:05.596Z,49.13
2019-02-24T17:34:31.673Z,49.22
2019-02-24T17:37:03.507Z,49.13
2019-02-24T17:39:29.552Z,48.98
2019-02-24T17:41:55.551Z,49.00
2019-02-24T17:44:21.560Z,48.97
2019-02-24T17:46:47.667Z,48.94
2019-02-24T17:49:13.710Z,48.92
2019-02-24T17:51:39.807Z,48.76
2019-02-24T17:54:05.879Z,48.91
2019-02-24T17:56:31.901Z,48.97
2019-02-24T17:58:57.896Z,48.56
2019-02-24T18:01:23.923Z,48.47
2019-02-24T18:03:49.977Z,48.35
2019-02-24T18:06:16.029Z,48.36
2019-02-24T18:08:42.118Z,48.32
2019-02-24T18:11:08.115Z,48.24
2019-02-24T18:13:34.192Z,48.23
2019-02-24T18:16:00.281Z,48.36
2019-02-24T18:18:26.299Z,48.38
2019-02-24T18:20:52.293Z,48.37
2019-02-24T18:23:18.372Z,48.30
2019-02-24T18:25:44.383Z,48.28
2019-02-24T18:28:10.394Z,48.20
2019-02-24T18:30:36.384Z,48.24
2019-02-24T18:33:02.447Z,48.33
2019-02-24T18:35:28.524Z,48.37
2019-02-24T18:37:54.530Z,48.42
2019-02-24T18:40:22.143Z,48.40
2019-02-24T18:42:48.153Z,48.43
2019-02-24T18:45:14.185Z,48.44
2019-02-24T18:47:40.223Z,48.49
2019-02-24T18:50:06.249Z,48.34
2019-02-24T18:52:32.313Z,48.51
2019-02-24T18:54:58.335Z,48.49
2019-02-24T18:57:24.784Z,48.51
2019-02-24T18:59:50.878Z,48.53
2019-02-24T19:02:16.951Z,48.44
2019-02-24T19:04:43.004Z,48.34
2019-02-24T19:07:09.007Z,48.32
2019-02-24T19:09:35.007Z,48.30
2019-02-24T19:12:01.022Z,48.35
2019-02-24T19:14:27.020Z,48.32
2019-02-24T19:16:53.097Z,48.51
2019-02-24T19:19:25.344Z,48.28
2019-02-24T19:21:46.918Z,48.05
2019-02-24T19:24:13.118Z,48.04
2019-02-24T19:26:39.159Z,48.00
2019-02-24T19:29:05.224Z,47.95
2019-02-24T19:31:31.265Z,47.91
2019-02-24T19:34:06.101Z,47.82
2019-02-24T19:36:24.977Z,47.87
2019-02-24T19:38:51.001Z,47.86
2019-02-24T19:41:17.016Z,47.86
2019-02-24T19:43:43.027Z,48.40
2019-02-24T19:46:09.107Z,48.37
2019-02-24T19:48:41.753Z,48.06
2019-02-24T19:51:03.037Z,47.95
2019-02-24T19:53:29.064Z,47.90
2019-02-24T19:55:55.137Z,47.83
2019-02-24T19:58:21.229Z,47.83
2019-02-24T20:00:47.220Z,47.79
2019-02-24T20:03:13.229Z,47.74
2019-02-24T20:05:39.272Z,47.75
2019-02-24T20:08:05.353Z,47.70
2019-02-24T20:10:31.468Z,47.68
2019-02-24T20:12:57.503Z,47.68
2019-02-24T20:15:23.500Z,47.64
2019-02-24T20:17:49.597Z,47.65
2019-02-24T20:20:15.616Z,47.56
2019-02-24T20:22:41.628Z,47.54
2019-02-24T20:25:07.644Z,47.51
2019-02-24T20:27:33.639Z,47.44
2019-02-24T20:29:59.633Z,47.38
2019-02-24T20:32:25.713Z,47.38
2019-02-24T20:34:51.717Z,47.33
2019-02-24T20:37:18.789Z,47.29
2019-02-24T20:39:44.809Z,47.19
2019-02-24T20:42:10.961Z,47.18
2019-02-24T20:44:36.958Z,47.35
2019-02-24T20:47:02.940Z,47.45
2019-02-24T20:49:28.942Z,47.43
2019-02-24T20:51:54.970Z,47.44
2019-02-24T20:54:20.983Z,47.39
2019-02-24T20:56:47.034Z,47.37
2019-02-24T20:59:13.133Z,47.34
2019-02-24T21:01:39.193Z,47.38
2019-02-24T21:04:05.175Z,47.34
2019-02-24T21:06:31.148Z,47.32
2019-02-24T21:08:57.135Z,47.30
2019-02-24T21:11:23.149Z,47.25
2019-02-24T21:13:49.140Z,47.12
2019-02-24T21:16:15.116Z,47.09
2019-02-24T21:18:41.107Z,46.97
2019-02-24T21:21:07.130Z,47.24
2019-02-24T21:23:33.133Z,47.22
2019-02-24T21:25:59.185Z,47.22
2019-02-24T21:28:25.183Z,47.30
2019-02-24T21:30:51.207Z,47.18
2019-02-24T21:33:18.219Z,47.08
2019-02-24T21:35:44.589Z,47.25
2019-02-24T21:38:12.064Z,47.22
2019-02-24T21:40:38.211Z,47.16
2019-02-24T21:43:04.276Z,47.11
2019-02-24T21:45:30.391Z,47.11
2019-02-24T21:47:56.417Z,47.03
2019-02-24T21:50:22.519Z,47.08
2019-02-24T21:52:48.696Z,47.17
2019-02-24T21:55:14.708Z,47.18
2019-02-24T21:57:40.696Z,47.13
2019-02-24T22:00:06.820Z,47.17
2019-02-24T22:02:32.874Z,47.07
2019-02-24T22:04:58.884Z,47.13
2019-02-24T22:07:24.941Z,47.13
2019-02-24T22:09:51.072Z,47.11
2019-02-24T22:12:17.092Z,47.02
2019-02-24T22:14:43.143Z,47.01
2019-02-24T22:17:09.131Z,47.05
2019-02-24T22:19:35.138Z,46.97
2019-02-24T22:22:01.164Z,47.13
2019-02-24T22:24:27.160Z,46.93
2019-02-24T22:26:53.163Z,46.88
2019-02-24T22:29:19.156Z,46.91
2019-02-24T22:31:45.231Z,46.86
2019-02-24T22:34:11.206Z,46.86
2019-02-24T22:36:37.323Z,46.85
2019-02-24T22:39:05.115Z,46.95
2019-02-24T22:41:31.250Z,46.96
2019-02-24T22:43:57.240Z,47.07
2019-02-24T22:46:23.228Z,46.94
2019-02-24T22:48:49.209Z,47.01
2019-02-24T22:51:15.276Z,46.98
2019-02-24T22:53:41.255Z,46.98
2019-02-24T22:56:07.264Z,46.96
2019-02-24T22:58:33.240Z,47.01
2019-02-24T23:00:59.315Z,47.22
2019-02-24T23:03:25.323Z,46.75
2019-02-24T23:05:51.307Z,46.66
2019-02-24T23:08:17.302Z,46.67
2019-02-24T23:10:43.289Z,46.68
2019-02-24T23:13:09.296Z,46.68
2019-02-24T23:15:35.272Z,46.75
2019-02-24T23:18:01.268Z,46.76
2019-02-24T23:20:27.323Z,46.79
2019-02-24T23:22:53.329Z,47.25
2019-02-24T23:25:19.304Z,46.87
2019-02-24T23:27:45.328Z,46.64
2019-02-24T23:30:11.484Z,46.79
2019-02-24T23:32:37.459Z,46.74
2019-02-24T23:35:03.539Z,46.89
2019-02-24T23:37:29.520Z,46.83
2019-02-24T23:39:55.589Z,46.93
2019-02-24T23:42:21.558Z,47.08
2019-02-24T23:44:47.544Z,46.99
2019-02-24T23:47:13.564Z,46.90
2019-02-24T23:49:39.559Z,46.94
2019-02-24T23:52:05.617Z,47.00
2019-02-24T23:54:31.592Z,47.01
2019-02-24T23:56:57.673Z,47.01
2019-02-24T23:59:23.648Z,47.10
